SBFZ/FOR METAR and TAF weather

Enter ICAO airport designator
Station Type Date Time Source
SBFZ METAR 2019/10/23 07:00 UTC NOAA

SBFZ 230700Z 17004KT 9999 SCT015 25/22 Q1011


Station Type Date Time Source
SBFZ Decoded METAR 2019/10/23 07:00 UTC NOAA

Fortaleza / pinto Martins , Brazil (SBFZ) 03-47S 038-32W 25M
Oct 23, 2019 - 03:00 AM EDT / 2019.10.23 0700 UTC
Wind: from the S (170 degrees) at 5 MPH (4 KT):0
Visibility: greater than 7 mile(s):0
Sky conditions: partly cloudy
Temperature: 77 F (25 C)
Dew Point: 71 F (22 C)
Relative Humidity: 83%
Pressure (altimeter): 29.85 in. Hg (1011 hPa)
ob: SBFZ 230700Z 17004KT 9999 SCT015 25/22 Q1011
cycle: 7

Station Type Date Time Source
SBFZ TAF 2019/10/23 06:33 UTC NOAA

TAF TAF SBFZ 230400Z 2306/2406 10010KT 9999 SCT020 TN25/2309Z TX31/2316Z
BECMG 2311/2313 10018KT 8000 BKN017
BECMG 2315/2317 SCT020
BECMG 2322/2323 09010KT
RMK PFM

Example: see airport list